sensor_id;sensor_type;location;lat;lon;timestamp;pressure;altitude;pressure_sealevel;temperature;humidity
35291;BME280;21411;50.024;19.220;2022-07-10T00:00:13;99035.34;;;14.72;100.00
35291;BME280;21411;50.024;19.220;2022-07-10T00:02:59;99032.38;;;14.66;100.00
35291;BME280;21411;50.024;19.220;2022-07-10T00:05:26;99028.98;;;14.62;100.00
35291;BME280;21411;50.024;19.220;2022-07-10T00:07:52;99025.56;;;14.58;100.00
35291;BME280;21411;50.024;19.220;2022-07-10T00:10:18;99023.98;;;14.56;100.00
35291;BME280;21411;50.024;19.220;2022-07-10T00:12:45;99027.52;;;14.54;100.00
35291;BME280;21411;50.024;19.220;2022-07-10T00:15:13;99025.68;;;14.52;100.00
35291;BME280;21411;50.024;19.220;2022-07-10T00:17:39;99022.14;;;14.52;100.00
35291;BME280;21411;50.024;19.220;2022-07-10T00:20:07;99019.82;;;14.52;100.00
35291;BME280;21411;50.024;19.220;2022-07-10T00:22:34;99019.14;;;14.51;100.00
35291;BME280;21411;50.024;19.220;2022-07-10T00:25:01;99014.55;;;14.50;100.00
35291;BME280;21411;50.024;19.220;2022-07-10T00:27:29;99012.27;;;14.50;100.00
35291;BME280;21411;50.024;19.220;2022-07-10T00:29:54;99007.46;;;14.49;100.00
35291;BME280;21411;50.024;19.220;2022-07-10T00:32:20;99005.59;;;14.48;100.00
35291;BME280;21411;50.024;19.220;2022-07-10T00:34:47;99007.84;;;14.47;100.00
35291;BME280;21411;50.024;19.220;2022-07-10T00:37:12;99005.07;;;14.46;100.00
35291;BME280;21411;50.024;19.220;2022-07-10T00:39:39;99001.77;;;14.45;100.00
35291;BME280;21411;50.024;19.220;2022-07-10T00:42:09;98999.02;;;14.46;100.00
35291;BME280;21411;50.024;19.220;2022-07-10T00:44:36;98997.29;;;14.47;100.00
35291;BME280;21411;50.024;19.220;2022-07-10T00:47:04;98995.28;;;14.50;100.00
35291;BME280;21411;50.024;19.220;2022-07-10T00:49:35;98993.83;;;14.53;100.00
35291;BME280;21411;50.024;19.220;2022-07-10T00:52:10;98985.23;;;14.55;100.00
35291;BME280;21411;50.024;19.220;2022-07-10T00:54:37;98986.90;;;14.57;100.00
35291;BME280;21411;50.024;19.220;2022-07-10T00:57:06;98983.55;;;14.58;100.00
35291;BME280;21411;50.024;19.220;2022-07-10T00:59:32;98982.11;;;14.60;100.00
35291;BME280;21411;50.024;19.220;2022-07-10T01:02:00;98981.55;;;14.63;100.00
35291;BME280;21411;50.024;19.220;2022-07-10T01:04:26;98976.70;;;14.63;100.00
35291;BME280;21411;50.024;19.220;2022-07-10T01:06:52;98976.08;;;14.64;100.00
35291;BME280;21411;50.024;19.220;2022-07-10T01:09:18;98971.21;;;14.65;100.00
35291;BME280;21411;50.024;19.220;2022-07-10T01:11:45;98970.67;;;14.65;100.00
35291;BME280;21411;50.024;19.220;2022-07-10T01:14:12;98970.27;;;14.65;100.00
35291;BME280;21411;50.024;19.220;2022-07-10T01:16:38;98969.38;;;14.65;100.00
35291;BME280;21411;50.024;19.220;2022-07-10T01:19:04;98968.56;;;14.66;100.00
35291;BME280;21411;50.024;19.220;2022-07-10T01:21:33;98966.80;;;14.68;100.00
35291;BME280;21411;50.024;19.220;2022-07-10T01:24:04;98961.86;;;14.69;100.00
35291;BME280;21411;50.024;19.220;2022-07-10T01:26:31;98958.25;;;14.70;100.00
35291;BME280;21411;50.024;19.220;2022-07-10T01:28:56;98956.32;;;14.71;100.00
35291;BME280;21411;50.024;19.220;2022-07-10T01:31:26;98955.06;;;14.74;100.00
35291;BME280;21411;50.024;19.220;2022-07-10T01:33:53;98955.42;;;14.74;100.00
35291;BME280;21411;50.024;19.220;2022-07-10T01:36:21;98955.34;;;14.75;100.00
35291;BME280;21411;50.024;19.220;2022-07-10T01:38:48;98947.96;;;14.75;100.00
35291;BME280;21411;50.024;19.220;2022-07-10T01:41:16;98945.56;;;14.76;100.00
35291;BME280;21411;50.024;19.220;2022-07-10T01:43:43;98942.13;;;14.76;100.00
35291;BME280;21411;50.024;19.220;2022-07-10T01:46:11;98940.52;;;14.76;100.00
35291;BME280;21411;50.024;19.220;2022-07-10T01:48:38;98935.15;;;14.76;100.00
35291;BME280;21411;50.024;19.220;2022-07-10T01:51:05;98937.37;;;14.78;100.00
35291;BME280;21411;50.024;19.220;2022-07-10T01:53:31;98934.91;;;14.79;100.00
35291;BME280;21411;50.024;19.220;2022-07-10T01:55:58;98935.13;;;14.81;100.00
35291;BME280;21411;50.024;19.220;2022-07-10T01:58:26;98932.23;;;14.83;100.00
35291;BME280;21411;50.024;19.220;2022-07-10T02:00:52;98932.48;;;14.85;100.00
35291;BME280;21411;50.024;19.220;2022-07-10T02:03:18;98930.21;;;14.86;100.00
35291;BME280;21411;50.024;19.220;2022-07-10T02:06:03;98925.11;;;14.87;100.00
35291;BME280;21411;50.024;19.220;2022-07-10T02:08:29;98919.92;;;14.87;100.00
35291;BME280;21411;50.024;19.220;2022-07-10T02:10:55;98920.40;;;14.88;100.00
35291;BME280;21411;50.024;19.220;2022-07-10T02:13:21;98922.20;;;14.88;100.00
35291;BME280;21411;50.024;19.220;2022-07-10T02:15:50;98919.52;;;14.87;100.00
35291;BME280;21411;50.024;19.220;2022-07-10T02:18:16;98915.83;;;14.89;100.00
35291;BME280;21411;50.024;19.220;2022-07-10T02:20:42;98918.31;;;14.89;100.00
35291;BME280;21411;50.024;19.220;2022-07-10T02:23:08;98917.50;;;14.88;100.00
35291;BME280;21411;50.024;19.220;2022-07-10T02:25:34;98916.15;;;14.87;100.00
35291;BME280;21411;50.024;19.220;2022-07-10T02:28:01;98919.00;;;14.87;100.00
35291;BME280;21411;50.024;19.220;2022-07-10T02:30:26;98914.02;;;14.87;100.00
35291;BME280;21411;50.024;19.220;2022-07-10T02:32:52;98910.55;;;14.88;100.00
35291;BME280;21411;50.024;19.220;2022-07-10T02:35:19;98908.98;;;14.87;100.00
35291;BME280;21411;50.024;19.220;2022-07-10T02:37:45;98907.62;;;14.87;100.00
35291;BME280;21411;50.024;19.220;2022-07-10T02:40:10;98907.98;;;14.86;100.00
35291;BME280;21411;50.024;19.220;2022-07-10T02:42:37;98903.63;;;14.85;100.00
35291;BME280;21411;50.024;19.220;2022-07-10T02:45:04;98903.47;;;14.85;100.00
35291;BME280;21411;50.024;19.220;2022-07-10T02:47:30;98902.95;;;14.85;100.00
35291;BME280;21411;50.024;19.220;2022-07-10T02:49:57;98898.56;;;14.84;100.00
35291;BME280;21411;50.024;19.220;2022-07-10T02:52:23;98897.96;;;14.82;100.00
35291;BME280;21411;50.024;19.220;2022-07-10T02:54:49;98898.69;;;14.82;100.00
35291;BME280;21411;50.024;19.220;2022-07-10T02:57:17;98900.70;;;14.82;100.00
35291;BME280;21411;50.024;19.220;2022-07-10T02:59:42;98898.94;;;14.81;100.00
35291;BME280;21411;50.024;19.220;2022-07-10T03:02:08;98895.30;;;14.82;100.00
35291;BME280;21411;50.024;19.220;2022-07-10T03:04:35;98898.39;;;14.82;100.00
35291;BME280;21411;50.024;19.220;2022-07-10T03:07:01;98895.79;;;14.81;100.00
35291;BME280;21411;50.024;19.220;2022-07-10T03:09:27;98896.96;;;14.80;100.00
35291;BME280;21411;50.024;19.220;2022-07-10T03:11:53;98895.94;;;14.79;100.00
35291;BME280;21411;50.024;19.220;2022-07-10T03:14:19;98898.21;;;14.80;100.00
35291;BME280;21411;50.024;19.220;2022-07-10T03:16:44;98894.52;;;14.79;100.00
35291;BME280;21411;50.024;19.220;2022-07-10T03:19:11;98892.35;;;14.79;100.00
35291;BME280;21411;50.024;19.220;2022-07-10T03:21:38;98887.45;;;14.80;100.00
35291;BME280;21411;50.024;19.220;2022-07-10T03:24:04;98888.16;;;14.80;100.00
35291;BME280;21411;50.024;19.220;2022-07-10T03:26:30;98891.70;;;14.81;100.00
35291;BME280;21411;50.024;19.220;2022-07-10T03:28:56;98892.96;;;14.80;100.00
35291;BME280;21411;50.024;19.220;2022-07-10T03:31:22;98890.39;;;14.81;100.00
35291;BME280;21411;50.024;19.220;2022-07-10T03:33:48;98885.23;;;14.83;100.00
35291;BME280;21411;50.024;19.220;2022-07-10T03:36:14;98885.35;;;14.84;100.00
35291;BME280;21411;50.024;19.220;2022-07-10T03:38:40;98886.56;;;14.84;100.00
35291;BME280;21411;50.024;19.220;2022-07-10T03:41:07;98886.95;;;14.86;100.00
35291;BME280;21411;50.024;19.220;2022-07-10T03:43:33;98891.13;;;14.87;100.00
35291;BME280;21411;50.024;19.220;2022-07-10T03:45:58;98885.90;;;14.90;100.00
35291;BME280;21411;50.024;19.220;2022-07-10T03:48:25;98881.68;;;14.93;100.00
35291;BME280;21411;50.024;19.220;2022-07-10T03:50:51;98877.83;;;14.97;100.00
35291;BME280;21411;50.024;19.220;2022-07-10T03:53:18;98874.15;;;14.97;100.00
35291;BME280;21411;50.024;19.220;2022-07-10T03:55:45;98873.50;;;14.99;100.00
35291;BME280;21411;50.024;19.220;2022-07-10T03:58:11;98873.23;;;15.00;100.00
35291;BME280;21411;50.024;19.220;2022-07-10T04:00:37;98880.36;;;15.02;100.00
35291;BME280;21411;50.024;19.220;2022-07-10T04:03:05;98879.52;;;15.05;100.00
35291;BME280;21411;50.024;19.220;2022-07-10T04:05:32;98878.34;;;15.09;100.00
35291;BME280;21411;50.024;19.220;2022-07-10T04:07:59;98881.77;;;15.12;100.00
35291;BME280;21411;50.024;19.220;2022-07-10T04:10:27;98875.69;;;15.17;100.00
35291;BME280;21411;50.024;19.220;2022-07-10T04:12:53;98875.89;;;15.20;100.00
35291;BME280;21411;50.024;19.220;2022-07-10T04:15:19;98874.51;;;15.26;100.00
35291;BME280;21411;50.024;19.220;2022-07-10T04:17:48;98878.85;;;15.33;100.00
35291;BME280;21411;50.024;19.220;2022-07-10T04:20:14;98883.48;;;15.40;100.00
35291;BME280;21411;50.024;19.220;2022-07-10T04:22:41;98884.20;;;15.44;100.00
35291;BME280;21411;50.024;19.220;2022-07-10T04:25:08;98875.64;;;15.47;100.00
35291;BME280;21411;50.024;19.220;2022-07-10T04:27:34;98876.33;;;15.54;100.00
35291;BME280;21411;50.024;19.220;2022-07-10T04:30:01;98872.41;;;15.61;100.00
35291;BME280;21411;50.024;19.220;2022-07-10T04:32:27;98873.09;;;15.72;100.00
35291;BME280;21411;50.024;19.220;2022-07-10T04:34:54;98873.68;;;15.90;100.00
35291;BME280;21411;50.024;19.220;2022-07-10T04:37:20;98874.95;;;16.18;100.00
35291;BME280;21411;50.024;19.220;2022-07-10T04:39:46;98872.13;;;16.22;100.00
35291;BME280;21411;50.024;19.220;2022-07-10T04:42:12;98878.23;;;16.20;100.00
35291;BME280;21411;50.024;19.220;2022-07-10T04:44:38;98874.73;;;16.17;100.00
35291;BME280;21411;50.024;19.220;2022-07-10T04:47:06;98876.06;;;16.11;100.00
35291;BME280;21411;50.024;19.220;2022-07-10T04:49:32;98880.34;;;15.97;100.00
35291;BME280;21411;50.024;19.220;2022-07-10T04:51:59;98878.44;;;15.83;100.00
35291;BME280;21411;50.024;19.220;2022-07-10T04:54:26;98879.83;;;15.83;100.00
35291;BME280;21411;50.024;19.220;2022-07-10T04:56:52;98881.20;;;16.07;100.00
35291;BME280;21411;50.024;19.220;2022-07-10T04:59:18;98880.36;;;16.17;100.00
35291;BME280;21411;50.024;19.220;2022-07-10T05:01:44;98878.55;;;16.17;100.00
35291;BME280;21411;50.024;19.220;2022-07-10T05:04:10;98883.67;;;16.17;100.00
35291;BME280;21411;50.024;19.220;2022-07-10T05:06:36;98883.23;;;16.20;100.00
35291;BME280;21411;50.024;19.220;2022-07-10T05:09:03;98881.16;;;16.25;100.00
35291;BME280;21411;50.024;19.220;2022-07-10T05:11:29;98881.48;;;16.22;100.00
35291;BME280;21411;50.024;19.220;2022-07-10T05:13:57;98881.38;;;16.13;100.00
35291;BME280;21411;50.024;19.220;2022-07-10T05:16:23;98883.88;;;16.09;100.00
35291;BME280;21411;50.024;19.220;2022-07-10T05:18:49;98888.77;;;16.07;100.00
35291;BME280;21411;50.024;19.220;2022-07-10T05:21:16;98888.80;;;16.02;100.00
35291;BME280;21411;50.024;19.220;2022-07-10T05:23:43;98888.45;;;16.00;100.00
35291;BME280;21411;50.024;19.220;2022-07-10T05:26:08;98887.94;;;15.96;100.00
35291;BME280;21411;50.024;19.220;2022-07-10T05:28:35;98885.70;;;15.93;100.00
35291;BME280;21411;50.024;19.220;2022-07-10T05:31:02;98891.02;;;15.94;100.00
35291;BME280;21411;50.024;19.220;2022-07-10T05:33:28;98893.51;;;15.96;100.00
35291;BME280;21411;50.024;19.220;2022-07-10T05:35:54;98891.94;;;16.10;100.00
35291;BME280;21411;50.024;19.220;2022-07-10T05:38:21;98895.42;;;16.36;100.00
35291;BME280;21411;50.024;19.220;2022-07-10T05:40:47;98893.99;;;16.71;100.00
35291;BME280;21411;50.024;19.220;2022-07-10T05:43:14;98899.84;;;17.00;100.00
35291;BME280;21411;50.024;19.220;2022-07-10T05:45:41;98901.96;;;17.10;100.00
35291;BME280;21411;50.024;19.220;2022-07-10T05:48:07;98895.25;;;17.33;100.00
35291;BME280;21411;50.024;19.220;2022-07-10T05:50:33;98891.38;;;17.60;98.70
35291;BME280;21411;50.024;19.220;2022-07-10T05:52:59;98883.45;;;17.84;94.52
35291;BME280;21411;50.024;19.220;2022-07-10T05:55:25;98891.02;;;18.31;91.65
35291;BME280;21411;50.024;19.220;2022-07-10T05:57:51;98885.46;;;18.68;90.04
35291;BME280;21411;50.024;19.220;2022-07-10T06:00:17;98883.39;;;19.13;87.09
35291;BME280;21411;50.024;19.220;2022-07-10T06:02:43;98882.04;;;19.10;83.97
35291;BME280;21411;50.024;19.220;2022-07-10T06:05:09;98886.27;;;18.97;82.59
35291;BME280;21411;50.024;19.220;2022-07-10T06:07:36;98886.10;;;19.25;81.06
35291;BME280;21411;50.024;19.220;2022-07-10T06:10:06;98880.84;;;19.76;78.53
35291;BME280;21411;50.024;19.220;2022-07-10T06:12:33;98880.56;;;20.49;76.82
35291;BME280;21411;50.024;19.220;2022-07-10T06:14:59;98873.90;;;21.27;72.00
35291;BME280;21411;50.024;19.220;2022-07-10T06:17:25;98874.59;;;20.96;71.67
35291;BME280;21411;50.024;19.220;2022-07-10T06:19:51;98877.89;;;20.42;72.33
35291;BME280;21411;50.024;19.220;2022-07-10T06:22:18;98881.63;;;19.83;71.18
35291;BME280;21411;50.024;19.220;2022-07-10T06:25:00;98882.48;;;19.01;71.81
35291;BME280;21411;50.024;19.220;2022-07-10T06:27:27;98882.02;;;18.45;74.09
35291;BME280;21411;50.024;19.220;2022-07-10T06:29:53;98882.33;;;18.21;74.70
35291;BME280;21411;50.024;19.220;2022-07-10T06:32:19;98876.53;;;18.53;73.44
35291;BME280;21411;50.024;19.220;2022-07-10T06:34:45;98876.54;;;19.26;72.86
35291;BME280;21411;50.024;19.220;2022-07-10T06:37:12;98873.35;;;20.12;70.48
35291;BME280;21411;50.024;19.220;2022-07-10T06:39:38;98878.98;;;20.54;68.14
35291;BME280;21411;50.024;19.220;2022-07-10T06:42:07;98881.82;;;20.39;68.12
35291;BME280;21411;50.024;19.220;2022-07-10T06:44:33;98882.49;;;20.48;66.64
35291;BME280;21411;50.024;19.220;2022-07-10T06:47:00;98880.13;;;20.17;66.71
35291;BME280;21411;50.024;19.220;2022-07-10T06:49:48;98876.71;;;20.63;64.32
35291;BME280;21411;50.024;19.220;2022-07-10T06:52:15;98875.02;;;21.17;61.60
35291;BME280;21411;50.024;19.220;2022-07-10T06:54:41;98874.89;;;20.99;59.37
35291;BME280;21411;50.024;19.220;2022-07-10T06:57:08;98874.48;;;20.39;62.25
35291;BME280;21411;50.024;19.220;2022-07-10T06:59:34;98873.80;;;19.97;63.71
35291;BME280;21411;50.024;19.220;2022-07-10T07:02:00;98880.98;;;19.63;64.17
35291;BME280;21411;50.024;19.220;2022-07-10T07:04:27;98880.34;;;19.40;65.15
35291;BME280;21411;50.024;19.220;2022-07-10T07:06:53;98876.81;;;19.48;65.45
35291;BME280;21411;50.024;19.220;2022-07-10T07:09:19;98877.04;;;19.60;63.83
35291;BME280;21411;50.024;19.220;2022-07-10T07:11:45;98875.36;;;20.21;62.65
35291;BME280;21411;50.024;19.220;2022-07-10T07:14:12;98869.30;;;20.84;60.37
35291;BME280;21411;50.024;19.220;2022-07-10T07:16:39;98870.71;;;20.96;61.26
35291;BME280;21411;50.024;19.220;2022-07-10T07:19:11;98875.22;;;20.93;62.26
35291;BME280;21411;50.024;19.220;2022-07-10T07:21:44;98878.00;;;20.92;62.08
35291;BME280;21411;50.024;19.220;2022-07-10T07:24:28;98881.13;;;20.69;60.86
35291;BME280;21411;50.024;19.220;2022-07-10T07:26:54;98878.70;;;20.48;60.31
35291;BME280;21411;50.024;19.220;2022-07-10T07:29:20;98880.70;;;20.21;60.38
35291;BME280;21411;50.024;19.220;2022-07-10T07:31:46;98882.48;;;20.11;60.55
35291;BME280;21411;50.024;19.220;2022-07-10T07:34:12;98881.03;;;20.11;60.65
35291;BME280;21411;50.024;19.220;2022-07-10T07:36:39;98885.04;;;20.00;59.60
35291;BME280;21411;50.024;19.220;2022-07-10T07:39:05;98883.03;;;19.88;60.16
35291;BME280;21411;50.024;19.220;2022-07-10T07:41:31;98889.52;;;20.15;60.58
35291;BME280;21411;50.024;19.220;2022-07-10T07:43:57;98889.65;;;20.30;58.03
35291;BME280;21411;50.024;19.220;2022-07-10T07:46:23;98890.31;;;20.49;58.25
35291;BME280;21411;50.024;19.220;2022-07-10T07:48:51;98887.23;;;20.82;57.31
35291;BME280;21411;50.024;19.220;2022-07-10T07:51:17;98891.33;;;20.97;58.29
35291;BME280;21411;50.024;19.220;2022-07-10T07:53:43;98889.24;;;21.08;55.57
35291;BME280;21411;50.024;19.220;2022-07-10T07:56:09;98892.93;;;20.89;55.45
35291;BME280;21411;50.024;19.220;2022-07-10T07:58:36;98886.58;;;21.06;56.14
35291;BME280;21411;50.024;19.220;2022-07-10T08:01:01;98885.17;;;21.21;55.73
35291;BME280;21411;50.024;19.220;2022-07-10T08:03:28;98889.59;;;21.13;55.34
35291;BME280;21411;50.024;19.220;2022-07-10T08:05:54;98895.41;;;21.06;54.97
35291;BME280;21411;50.024;19.220;2022-07-10T08:08:20;98899.39;;;20.90;54.26
35291;BME280;21411;50.024;19.220;2022-07-10T08:10:46;98901.04;;;20.73;52.86
35291;BME280;21411;50.024;19.220;2022-07-10T08:13:13;98899.76;;;20.64;53.50
35291;BME280;21411;50.024;19.220;2022-07-10T08:15:39;98902.96;;;20.56;52.78
35291;BME280;21411;50.024;19.220;2022-07-10T08:18:05;98902.39;;;20.69;53.96
35291;BME280;21411;50.024;19.220;2022-07-10T08:20:34;98895.86;;;21.18;53.31
35291;BME280;21411;50.024;19.220;2022-07-10T08:23:00;98895.36;;;21.46;53.28
35291;BME280;21411;50.024;19.220;2022-07-10T08:25:28;98894.30;;;21.49;51.93
35291;BME280;21411;50.024;19.220;2022-07-10T08:28:03;98897.73;;;21.40;52.20
35291;BME280;21411;50.024;19.220;2022-07-10T08:30:31;98896.46;;;21.43;53.25
35291;BME280;21411;50.024;19.220;2022-07-10T08:32:57;98896.09;;;21.50;52.52
35291;BME280;21411;50.024;19.220;2022-07-10T08:35:25;98902.52;;;21.21;51.63
35291;BME280;21411;50.024;19.220;2022-07-10T08:37:50;98904.08;;;20.76;52.46
35291;BME280;21411;50.024;19.220;2022-07-10T08:40:16;98911.56;;;20.44;53.21
35291;BME280;21411;50.024;19.220;2022-07-10T08:42:45;98910.20;;;20.37;53.53
35291;BME280;21411;50.024;19.220;2022-07-10T08:45:12;98913.88;;;20.50;53.21
35291;BME280;21411;50.024;19.220;2022-07-10T08:47:42;98910.95;;;20.75;52.28
35291;BME280;21411;50.024;19.220;2022-07-10T08:50:23;98908.10;;;20.84;50.31
35291;BME280;21411;50.024;19.220;2022-07-10T08:55:32;98907.10;;;20.56;51.99
35291;BME280;21411;50.024;19.220;2022-07-10T08:57:59;98910.98;;;20.65;52.19
35291;BME280;21411;50.024;19.220;2022-07-10T09:00:25;98907.80;;;20.77;50.64
35291;BME280;21411;50.024;19.220;2022-07-10T09:02:54;98896.29;;;21.19;50.45
35291;BME280;21411;50.024;19.220;2022-07-10T09:05:21;98896.08;;;21.48;49.76
35291;BME280;21411;50.024;19.220;2022-07-10T09:07:49;98892.86;;;21.64;49.04
35291;BME280;21411;50.024;19.220;2022-07-10T09:10:20;98891.08;;;21.60;49.58
35291;BME280;21411;50.024;19.220;2022-07-10T09:12:51;98893.09;;;21.59;48.27
35291;BME280;21411;50.024;19.220;2022-07-10T09:15:20;98891.57;;;21.56;47.69
35291;BME280;21411;50.024;19.220;2022-07-10T09:17:49;98888.63;;;21.61;47.72
35291;BME280;21411;50.024;19.220;2022-07-10T09:20:38;98887.73;;;21.67;48.10
35291;BME280;21411;50.024;19.220;2022-07-10T09:23:15;98889.33;;;21.73;48.57
35291;BME280;21411;50.024;19.220;2022-07-10T09:25:47;98892.35;;;21.73;48.25
35291;BME280;21411;50.024;19.220;2022-07-10T09:28:19;98889.34;;;21.61;47.41
35291;BME280;21411;50.024;19.220;2022-07-10T09:30:46;98887.21;;;21.61;47.72
35291;BME280;21411;50.024;19.220;2022-07-10T09:33:32;98880.31;;;21.97;47.33
35291;BME280;21411;50.024;19.220;2022-07-10T09:36:04;98881.83;;;21.95;45.21
35291;BME280;21411;50.024;19.220;2022-07-10T09:44:03;98890.70;;;21.24;46.74
35291;BME280;21411;50.024;19.220;2022-07-10T09:46:37;98902.17;;;20.86;47.02
35291;BME280;21411;50.024;19.220;2022-07-10T09:49:08;98904.05;;;20.62;47.78
35291;BME280;21411;50.024;19.220;2022-07-10T09:54:04;98910.02;;;20.35;48.27
35291;BME280;21411;50.024;19.220;2022-07-10T09:56:46;98915.16;;;20.15;47.61
35291;BME280;21411;50.024;19.220;2022-07-10T09:59:15;98916.52;;;19.92;47.32
35291;BME280;21411;50.024;19.220;2022-07-10T10:01:49;98915.23;;;19.72;48.12
35291;BME280;21411;50.024;19.220;2022-07-10T10:04:17;98912.74;;;19.66;48.87
35291;BME280;21411;50.024;19.220;2022-07-10T10:06:52;98911.95;;;19.70;48.95
35291;BME280;21411;50.024;19.220;2022-07-10T10:09:24;98911.00;;;19.71;49.39
35291;BME280;21411;50.024;19.220;2022-07-10T10:11:56;98916.23;;;19.86;49.41
35291;BME280;21411;50.024;19.220;2022-07-10T10:14:23;98913.05;;;19.96;48.49
35291;BME280;21411;50.024;19.220;2022-07-10T10:16:54;98907.52;;;20.02;48.36
35291;BME280;21411;50.024;19.220;2022-07-10T10:19:23;98908.16;;;20.13;48.44
35291;BME280;21411;50.024;19.220;2022-07-10T10:22:09;98904.83;;;20.35;47.91
35291;BME280;21411;50.024;19.220;2022-07-10T10:24:36;98900.80;;;20.42;47.49
35291;BME280;21411;50.024;19.220;2022-07-10T10:27:05;98892.97;;;20.64;48.04
35291;BME280;21411;50.024;19.220;2022-07-10T10:29:35;98880.73;;;21.00;47.56
35291;BME280;21411;50.024;19.220;2022-07-10T10:32:01;98884.18;;;21.25;46.45
35291;BME280;21411;50.024;19.220;2022-07-10T10:34:43;98880.73;;;21.29;46.08
35291;BME280;21411;50.024;19.220;2022-07-10T10:37:32;98883.21;;;21.23;44.94
35291;BME280;21411;50.024;19.220;2022-07-10T10:40:00;98881.94;;;21.16;44.24
35291;BME280;21411;50.024;19.220;2022-07-10T10:42:37;98878.26;;;21.14;44.83
35291;BME280;21411;50.024;19.220;2022-07-10T10:45:34;98879.29;;;21.30;44.90
35291;BME280;21411;50.024;19.220;2022-07-10T10:48:12;98878.47;;;21.24;44.27
35291;BME280;21411;50.024;19.220;2022-07-10T10:50:52;98878.71;;;21.32;45.25
35291;BME280;21411;50.024;19.220;2022-07-10T10:53:26;98878.93;;;21.51;45.27
35291;BME280;21411;50.024;19.220;2022-07-10T10:58:36;98878.67;;;21.60;43.13
35291;BME280;21411;50.024;19.220;2022-07-10T11:01:26;98876.77;;;21.25;43.65
35291;BME280;21411;50.024;19.220;2022-07-10T11:09:27;98891.21;;;20.75;45.55
35291;BME280;21411;50.024;19.220;2022-07-10T11:12:10;98887.12;;;20.75;45.02
35291;BME280;21411;50.024;19.220;2022-07-10T11:14:39;98887.93;;;20.66;44.04
35291;BME280;21411;50.024;19.220;2022-07-10T11:17:07;98888.59;;;20.60;43.76
35291;BME280;21411;50.024;19.220;2022-07-10T11:19:34;98884.98;;;20.55;44.63
35291;BME280;21411;50.024;19.220;2022-07-10T11:28:05;98877.30;;;20.80;44.16
35291;BME280;21411;50.024;19.220;2022-07-10T11:30:51;98875.23;;;20.91;43.31
35291;BME280;21411;50.024;19.220;2022-07-10T11:33:18;98879.02;;;20.79;42.47
35291;BME280;21411;50.024;19.220;2022-07-10T11:35:52;98873.80;;;20.84;43.58
35291;BME280;21411;50.024;19.220;2022-07-10T11:40:46;98872.44;;;21.20;43.22
35291;BME280;21411;50.024;19.220;2022-07-10T11:43:12;98868.38;;;21.34;43.15
35291;BME280;21411;50.024;19.220;2022-07-10T11:45:43;98873.52;;;21.49;42.91
35291;BME280;21411;50.024;19.220;2022-07-10T11:48:18;98868.56;;;21.61;42.74
35291;BME280;21411;50.024;19.220;2022-07-10T11:50:45;98868.92;;;21.58;41.71
35291;BME280;21411;50.024;19.220;2022-07-10T11:53:12;98867.16;;;21.48;41.87
35291;BME280;21411;50.024;19.220;2022-07-10T11:55:39;98867.65;;;21.44;42.15
35291;BME280;21411;50.024;19.220;2022-07-10T11:58:14;98866.38;;;21.58;42.38
35291;BME280;21411;50.024;19.220;2022-07-10T12:00:40;98866.80;;;21.62;41.46
35291;BME280;21411;50.024;19.220;2022-07-10T12:03:20;98868.97;;;21.70;41.70
35291;BME280;21411;50.024;19.220;2022-07-10T12:05:47;98868.38;;;21.80;41.42
35291;BME280;21411;50.024;19.220;2022-07-10T12:08:14;98869.66;;;21.80;41.72
35291;BME280;21411;50.024;19.220;2022-07-10T12:10:40;98872.17;;;21.86;41.86
35291;BME280;21411;50.024;19.220;2022-07-10T12:13:10;98871.64;;;21.75;41.97
35291;BME280;21411;50.024;19.220;2022-07-10T12:15:42;98875.08;;;21.72;41.94
35291;BME280;21411;50.024;19.220;2022-07-10T12:18:23;98872.89;;;21.58;42.26
35291;BME280;21411;50.024;19.220;2022-07-10T12:20:51;98873.05;;;21.42;42.74
35291;BME280;21411;50.024;19.220;2022-07-10T12:23:19;98874.53;;;21.45;41.98
35291;BME280;21411;50.024;19.220;2022-07-10T12:25:47;98875.30;;;21.62;42.08
35291;BME280;21411;50.024;19.220;2022-07-10T12:28:14;98878.63;;;21.57;41.64
35291;BME280;21411;50.024;19.220;2022-07-10T12:30:46;98881.10;;;21.33;40.86
35291;BME280;21411;50.024;19.220;2022-07-10T12:33:30;98886.98;;;21.09;40.82
35291;BME280;21411;50.024;19.220;2022-07-10T12:35:58;98892.00;;;21.01;41.07
35291;BME280;21411;50.024;19.220;2022-07-10T12:38:29;98894.95;;;20.92;41.34
35291;BME280;21411;50.024;19.220;2022-07-10T12:41:10;98899.03;;;20.83;41.44
35291;BME280;21411;50.024;19.220;2022-07-10T12:43:38;98901.48;;;20.68;41.65
35291;BME280;21411;50.024;19.220;2022-07-10T12:46:22;98899.79;;;20.56;42.67
35291;BME280;21411;50.024;19.220;2022-07-10T12:49:09;98899.81;;;20.65;42.56
35291;BME280;21411;50.024;19.220;2022-07-10T12:51:46;98899.58;;;20.60;42.33
35291;BME280;21411;50.024;19.220;2022-07-10T12:54:35;98899.05;;;20.52;42.25
35291;BME280;21411;50.024;19.220;2022-07-10T12:57:04;98898.87;;;20.45;42.43
35291;BME280;21411;50.024;19.220;2022-07-10T12:59:33;98902.66;;;20.44;42.57
35291;BME280;21411;50.024;19.220;2022-07-10T13:02:16;98902.34;;;20.33;42.34
35291;BME280;21411;50.024;19.220;2022-07-10T13:04:56;98899.75;;;20.25;42.19
35291;BME280;21411;50.024;19.220;2022-07-10T13:07:34;98902.45;;;20.32;42.20
35291;BME280;21411;50.024;19.220;2022-07-10T13:10:05;98903.05;;;20.32;40.27
35291;BME280;21411;50.024;19.220;2022-07-10T13:12:33;98908.45;;;20.24;40.25
35291;BME280;21411;50.024;19.220;2022-07-10T13:15:01;98909.44;;;20.26;39.64
35291;BME280;21411;50.024;19.220;2022-07-10T13:17:27;98911.56;;;20.23;39.39
35291;BME280;21411;50.024;19.220;2022-07-10T13:19:53;98917.10;;;20.17;39.13